createdAt,value
2023-06-30T00:00:18.034Z,12.15
2023-06-30T00:02:50.095Z,12.77
2023-06-30T00:05:21.813Z,13.98
2023-06-30T00:07:56.200Z,13.18
2023-06-30T00:10:27.820Z,13.35
2023-06-30T00:12:59.490Z,12.25
2023-06-30T00:15:31.287Z,14.50
2023-06-30T00:18:02.958Z,14.90
2023-06-30T00:20:35.139Z,12.73
2023-06-30T00:23:10.157Z,13.23
2023-06-30T00:25:43.765Z,12.25
2023-06-30T00:28:17.230Z,12.93
2023-06-30T00:30:50.251Z,13.80
2023-06-30T00:33:21.899Z,13.00
2023-06-30T00:35:53.723Z,13.23
2023-06-30T00:38:25.395Z,14.63
2023-06-30T00:40:57.038Z,12.45
2023-06-30T00:43:28.728Z,14.07
2023-06-30T00:46:00.384Z,12.30
2023-06-30T00:48:32.958Z,12.98
2023-06-30T00:51:05.732Z,10.05
2023-06-30T00:53:40.006Z,12.73
2023-06-30T00:56:11.607Z,13.00
2023-06-30T00:58:43.375Z,12.10
2023-06-30T01:01:56.568Z,10.52
2023-06-30T01:04:57.951Z,13.80
2023-06-30T01:07:38.252Z,15.57
2023-06-30T01:10:16.595Z,12.40
2023-06-30T01:12:49.060Z,13.80
2023-06-30T01:15:21.336Z,15.68
2023-06-30T01:18:00.729Z,14.95
2023-06-30T01:20:36.049Z,15.98
2023-06-30T01:23:21.329Z,14.65
2023-06-30T01:25:54.105Z,17.00
2023-06-30T01:28:34.478Z,16.40
2023-06-30T01:31:09.932Z,15.30
2023-06-30T01:33:42.222Z,14.75
2023-06-30T01:36:15.751Z,16.15
2023-06-30T01:38:47.404Z,14.10
2023-06-30T01:41:21.246Z,14.52
2023-06-30T01:43:53.995Z,15.38
2023-06-30T01:46:25.963Z,16.10
2023-06-30T01:48:57.834Z,15.23
2023-06-30T01:51:29.508Z,14.55
2023-06-30T01:54:01.234Z,14.50
2023-06-30T01:56:32.826Z,16.45
2023-06-30T01:59:04.492Z,13.50
2023-06-30T02:01:36.140Z,13.30
2023-06-30T02:04:07.871Z,14.45
2023-06-30T02:06:39.897Z,14.32
2023-06-30T02:09:13.400Z,14.73
2023-06-30T02:11:45.169Z,14.13
2023-06-30T02:14:17.204Z,14.60
2023-06-30T02:16:48.907Z,14.77
2023-06-30T02:19:25.207Z,14.32
2023-06-30T02:21:59.810Z,17.95
2023-06-30T02:24:31.441Z,15.20
2023-06-30T02:27:03.197Z,14.35
2023-06-30T02:29:34.796Z,14.95
2023-06-30T02:32:06.889Z,14.52
2023-06-30T02:34:38.551Z,15.07
2023-06-30T02:37:10.118Z,15.52
2023-06-30T02:39:42.247Z,14.48
2023-06-30T02:42:14.063Z,13.73
2023-06-30T02:44:45.648Z,13.35
2023-06-30T02:47:17.588Z,13.05
2023-06-30T02:49:49.230Z,13.55
2023-06-30T02:52:20.813Z,14.23
2023-06-30T02:54:52.389Z,12.45
2023-06-30T02:57:24.159Z,19.23
2023-06-30T02:59:55.762Z,11.43
2023-06-30T03:02:27.963Z,15.43
2023-06-30T03:05:00.038Z,15.32
2023-06-30T03:07:32.073Z,15.75
2023-06-30T03:10:04.259Z,15.25
2023-06-30T03:12:35.834Z,15.52
2023-06-30T03:15:08.315Z,11.55
2023-06-30T03:17:39.995Z,16.02
2023-06-30T03:20:13.416Z,15.75
2023-06-30T03:22:45.121Z,14.98
2023-06-30T03:25:16.732Z,14.48
2023-06-30T03:27:48.317Z,12.38
2023-06-30T03:30:19.935Z,12.48
2023-06-30T03:32:51.616Z,18.35
2023-06-30T03:35:23.507Z,15.50
2023-06-30T03:37:55.163Z,14.88
2023-06-30T03:40:26.768Z,15.20
2023-06-30T03:42:58.379Z,16.40
2023-06-30T03:45:30.061Z,14.52
2023-06-30T03:48:01.783Z,15.30
2023-06-30T03:50:33.418Z,15.02
2023-06-30T03:53:04.978Z,14.60
2023-06-30T03:55:36.780Z,12.40
2023-06-30T03:58:08.397Z,17.70
2023-06-30T04:00:39.953Z,14.77
2023-06-30T04:03:12.002Z,10.98
2023-06-30T04:05:44.063Z,15.20
2023-06-30T04:08:16.076Z,12.20
2023-06-30T04:10:47.677Z,10.57
2023-06-30T04:13:19.324Z,12.43
2023-06-30T04:15:50.956Z,12.32
2023-06-30T04:18:22.598Z,14.13
2023-06-30T04:20:54.591Z,14.70
2023-06-30T04:23:26.215Z,11.90
2023-06-30T04:25:57.998Z,13.48
2023-06-30T04:28:29.591Z,13.20
2023-06-30T04:31:01.766Z,13.00
2023-06-30T04:33:35.162Z,12.45
2023-06-30T04:36:08.088Z,12.55
2023-06-30T04:38:40.830Z,11.73
2023-06-30T04:41:12.459Z,10.07
2023-06-30T04:43:47.236Z,11.80
2023-06-30T04:46:18.931Z,10.80
2023-06-30T04:48:50.689Z,12.30
2023-06-30T04:51:24.700Z,12.48
2023-06-30T04:53:56.330Z,11.25
2023-06-30T04:56:30.643Z,11.40
2023-06-30T04:59:02.317Z,11.27
2023-06-30T05:01:35.035Z,13.50
2023-06-30T05:04:06.708Z,8.98
2023-06-30T05:06:38.341Z,11.52
2023-06-30T05:09:09.910Z,9.70
2023-06-30T05:11:41.507Z,12.52
2023-06-30T05:14:13.114Z,10.65
2023-06-30T05:16:44.870Z,11.55
2023-06-30T05:19:16.564Z,10.70
2023-06-30T05:21:51.803Z,11.60
2023-06-30T05:24:23.402Z,16.08
2023-06-30T05:26:56.440Z,11.73
2023-06-30T05:29:31.941Z,10.15
2023-06-30T05:32:04.002Z,9.55
2023-06-30T05:34:35.630Z,11.25
2023-06-30T05:37:07.233Z,11.95
2023-06-30T05:39:39.553Z,12.63
2023-06-30T05:42:11.277Z,12.10
2023-06-30T05:44:42.878Z,11.20
2023-06-30T05:47:14.556Z,10.23
2023-06-30T05:49:49.270Z,12.13
2023-06-30T05:52:22.728Z,12.38
2023-06-30T05:54:54.305Z,8.63
2023-06-30T05:57:27.961Z,11.40
2023-06-30T06:00:00.151Z,12.73
2023-06-30T06:02:32.085Z,10.77
2023-06-30T06:05:04.118Z,10.52
2023-06-30T06:07:36.052Z,11.63
2023-06-30T06:10:08.502Z,11.77
2023-06-30T06:12:40.801Z,11.25
2023-06-30T06:15:12.381Z,11.27
2023-06-30T06:17:44.126Z,10.50
2023-06-30T06:20:15.684Z,10.05
2023-06-30T06:22:47.403Z,10.77
2023-06-30T06:25:18.987Z,9.05
2023-06-30T06:27:50.544Z,10.38
2023-06-30T06:30:22.317Z,10.23
2023-06-30T06:32:54.159Z,9.63
2023-06-30T06:35:25.794Z,8.07
2023-06-30T06:37:57.495Z,11.38
2023-06-30T06:40:30.106Z,9.77
2023-06-30T06:43:02.037Z,10.57
2023-06-30T06:45:33.648Z,9.23
2023-06-30T06:48:31.363Z,9.30
2023-06-30T06:51:04.976Z,8.38
2023-06-30T06:53:36.851Z,8.40
2023-06-30T06:56:08.703Z,10.77
2023-06-30T06:58:40.445Z,10.77
2023-06-30T07:01:12.997Z,10.38
2023-06-30T07:03:44.777Z,10.40
2023-06-30T07:06:19.879Z,9.38
2023-06-30T07:08:51.664Z,8.27
2023-06-30T07:11:23.247Z,8.15
2023-06-30T07:13:54.853Z,8.60
2023-06-30T07:16:29.589Z,5.47
2023-06-30T07:19:03.989Z,10.85
2023-06-30T07:21:38.693Z,6.38
2023-06-30T07:24:13.092Z,8.77
2023-06-30T07:26:44.668Z,6.93
2023-06-30T07:29:16.356Z,7.97
2023-06-30T07:31:48.116Z,7.60
2023-06-30T07:34:20.426Z,7.70
2023-06-30T07:36:52.468Z,7.32
2023-06-30T07:39:27.707Z,9.40
2023-06-30T07:41:59.364Z,8.50
2023-06-30T07:44:33.119Z,8.13
2023-06-30T07:47:05.288Z,7.57
2023-06-30T07:49:40.830Z,8.55
2023-06-30T07:52:15.194Z,7.32
2023-06-30T07:54:50.197Z,8.52
2023-06-30T07:57:25.551Z,7.45
2023-06-30T07:59:58.578Z,8.40
2023-06-30T08:02:30.640Z,8.18
2023-06-30T08:05:02.499Z,7.68
2023-06-30T08:07:49.266Z,8.20
2023-06-30T08:10:22.920Z,7.13
2023-06-30T08:12:54.604Z,7.18
2023-06-30T08:15:28.434Z,8.25
2023-06-30T08:18:00.314Z,8.68
2023-06-30T08:20:32.043Z,8.45
2023-06-30T08:23:03.984Z,8.10
2023-06-30T08:25:35.566Z,8.55
2023-06-30T08:28:07.173Z,8.05
2023-06-30T08:30:41.089Z,8.02
2023-06-30T08:33:17.712Z,8.90
2023-06-30T08:35:55.100Z,8.02
2023-06-30T08:38:26.704Z,6.70
2023-06-30T08:40:59.372Z,6.72
2023-06-30T08:43:32.843Z,8.65
2023-06-30T08:46:06.552Z,7.43
2023-06-30T08:48:38.478Z,7.60
2023-06-30T08:51:11.110Z,8.60
2023-06-30T08:53:42.772Z,7.55
2023-06-30T08:56:16.722Z,6.88
2023-06-30T08:58:48.325Z,7.95
2023-06-30T09:03:52.635Z,6.53
2023-06-30T09:06:25.421Z,9.23
2023-06-30T09:09:24.209Z,8.15
2023-06-30T09:11:57.055Z,8.15
2023-06-30T09:14:39.797Z,6.53
2023-06-30T09:17:12.884Z,8.27
2023-06-30T09:19:45.852Z,8.70
2023-06-30T09:22:55.222Z,9.13
2023-06-30T09:25:27.710Z,9.68
2023-06-30T09:28:11.025Z,8.40
2023-06-30T09:30:48.171Z,7.57
2023-06-30T09:33:21.878Z,8.07
2023-06-30T09:35:54.226Z,8.68
2023-06-30T09:38:29.386Z,9.95
2023-06-30T09:41:08.615Z,6.63
2023-06-30T09:43:42.636Z,8.80
2023-06-30T09:46:14.611Z,9.35
2023-06-30T09:48:46.291Z,9.68
2023-06-30T09:51:21.893Z,10.98
2023-06-30T09:53:54.441Z,11.27
2023-06-30T09:56:28.137Z,8.05
2023-06-30T09:59:00.049Z,10.13
2023-06-30T10:01:32.425Z,11.00
2023-06-30T10:04:04.320Z,7.63
2023-06-30T10:06:40.123Z,12.30
2023-06-30T10:09:12.114Z,11.05
2023-06-30T10:11:56.702Z,10.93
2023-06-30T10:14:33.104Z,11.23
2023-06-30T10:17:07.663Z,9.73
2023-06-30T10:19:40.777Z,12.35
2023-06-30T10:22:13.441Z,10.75
2023-06-30T10:24:45.725Z,13.10
2023-06-30T10:27:19.877Z,11.65
2023-06-30T10:29:52.046Z,13.82
2023-06-30T10:32:23.765Z,9.10
2023-06-30T10:34:56.309Z,10.48
2023-06-30T10:37:28.067Z,12.70
2023-06-30T10:39:59.653Z,13.73
2023-06-30T10:42:37.898Z,12.85
2023-06-30T10:45:10.090Z,13.05
2023-06-30T10:47:42.548Z,8.52
2023-06-30T10:50:15.310Z,10.05
2023-06-30T10:52:52.177Z,11.77
2023-06-30T10:55:28.288Z,11.68
2023-06-30T10:58:05.538Z,11.65
2023-06-30T11:00:37.533Z,11.20
2023-06-30T11:03:09.377Z,11.27
2023-06-30T11:05:44.563Z,14.45
2023-06-30T11:08:27.411Z,13.48
2023-06-30T11:11:03.743Z,12.55
2023-06-30T11:13:38.629Z,14.00
2023-06-30T11:16:11.173Z,11.23
2023-06-30T11:19:00.940Z,12.38
2023-06-30T11:21:33.328Z,13.48
2023-06-30T11:24:16.300Z,16.40
2023-06-30T11:26:47.970Z,13.85
2023-06-30T11:29:19.604Z,11.95
2023-06-30T11:31:51.242Z,10.63
2023-06-30T11:34:23.105Z,11.85
2023-06-30T11:36:54.770Z,12.90
2023-06-30T11:39:26.390Z,11.15
2023-06-30T11:42:01.095Z,13.43
2023-06-30T11:44:37.852Z,12.13
2023-06-30T11:47:09.620Z,12.73
2023-06-30T11:49:41.247Z,15.30
2023-06-30T11:52:15.098Z,12.23
2023-06-30T11:54:46.908Z,14.35
2023-06-30T11:57:23.907Z,17.58
2023-06-30T11:59:55.480Z,11.10
2023-06-30T12:02:27.477Z,13.18
2023-06-30T12:04:59.258Z,12.35
2023-06-30T12:07:33.467Z,14.38
2023-06-30T12:10:07.066Z,15.88
2023-06-30T12:12:38.878Z,17.05
2023-06-30T12:15:13.854Z,12.05
2023-06-30T12:17:45.607Z,11.35
2023-06-30T12:20:30.676Z,14.30
2023-06-30T12:23:08.924Z,13.18
2023-06-30T12:25:40.493Z,9.73
2023-06-30T12:28:15.732Z,12.25
2023-06-30T12:30:47.530Z,14.48
2023-06-30T12:33:25.446Z,12.13
2023-06-30T12:35:57.153Z,15.77
2023-06-30T12:38:31.890Z,12.95
2023-06-30T12:41:04.514Z,15.40
2023-06-30T12:43:36.475Z,19.25
2023-06-30T12:46:08.309Z,15.50
2023-06-30T12:48:39.859Z,18.55
2023-06-30T12:51:11.465Z,16.25
2023-06-30T12:53:43.108Z,16.88
2023-06-30T12:56:14.698Z,14.35
2023-06-30T12:58:46.305Z,17.00
2023-06-30T13:01:18.894Z,15.88
2023-06-30T13:03:50.651Z,17.98
2023-06-30T13:06:22.359Z,17.35
2023-06-30T13:08:53.983Z,22.33
2023-06-30T13:11:25.632Z,12.55
2023-06-30T13:13:58.382Z,17.67
2023-06-30T13:16:30.025Z,15.57
2023-06-30T13:19:01.726Z,15.35
2023-06-30T13:21:33.349Z,14.75
2023-06-30T13:24:05.567Z,17.02
2023-06-30T13:26:40.572Z,15.93
2023-06-30T13:29:15.975Z,11.77
2023-06-30T13:31:50.529Z,14.05
2023-06-30T13:34:22.327Z,16.08
2023-06-30T13:36:53.930Z,15.50
2023-06-30T13:39:25.599Z,16.65
2023-06-30T13:41:57.406Z,14.55
2023-06-30T13:44:31.902Z,18.80
2023-06-30T13:49:35.188Z,15.32
2023-06-30T13:52:07.207Z,17.30
2023-06-30T13:54:39.348Z,14.65
2023-06-30T13:57:12.413Z,16.98
2023-06-30T13:59:43.992Z,16.80
2023-06-30T14:02:15.590Z,10.88
2023-06-30T14:04:47.314Z,14.02
2023-06-30T14:07:18.925Z,16.52
2023-06-30T14:09:50.553Z,15.20
2023-06-30T14:12:22.102Z,17.45
2023-06-30T14:14:54.255Z,17.00
2023-06-30T14:17:25.811Z,13.77
2023-06-30T14:19:57.583Z,16.50
2023-06-30T14:22:29.149Z,13.93
2023-06-30T14:25:00.960Z,14.48
2023-06-30T14:27:32.597Z,15.45
2023-06-30T14:30:05.228Z,11.50
2023-06-30T14:32:36.941Z,12.82
2023-06-30T14:35:11.196Z,15.63
2023-06-30T14:37:42.774Z,14.55
2023-06-30T14:40:14.404Z,12.45
2023-06-30T14:42:48.201Z,11.85
2023-06-30T14:45:19.949Z,12.40
2023-06-30T14:47:52.232Z,11.13
2023-06-30T14:50:24.955Z,9.50
2023-06-30T14:52:56.790Z,11.32
2023-06-30T14:55:28.395Z,10.45
2023-06-30T14:58:00.036Z,11.57
2023-06-30T15:00:32.794Z,11.68
2023-06-30T15:03:05.539Z,11.50
2023-06-30T15:05:37.419Z,13.30
2023-06-30T15:08:09.026Z,12.73
2023-06-30T15:10:40.601Z,11.95
2023-06-30T15:13:12.278Z,11.40
2023-06-30T15:15:44.187Z,11.02
2023-06-30T15:18:15.945Z,10.40
2023-06-30T15:20:47.541Z,11.75
2023-06-30T15:23:19.186Z,9.90
2023-06-30T15:25:50.900Z,11.30
2023-06-30T15:28:22.679Z,11.43
2023-06-30T15:30:54.268Z,11.50
2023-06-30T15:33:26.700Z,11.80
2023-06-30T15:35:58.906Z,10.63
2023-06-30T15:38:30.602Z,9.75
2023-06-30T15:41:21.254Z,9.68
2023-06-30T15:43:54.158Z,10.93
2023-06-30T15:46:26.245Z,8.75
2023-06-30T15:48:57.990Z,11.48
2023-06-30T15:51:29.639Z,11.05
2023-06-30T15:54:01.317Z,8.68
2023-06-30T15:56:32.955Z,10.85
2023-06-30T15:59:11.761Z,10.40
2023-06-30T16:01:43.389Z,9.23
2023-06-30T16:04:15.068Z,12.32
2023-06-30T16:06:48.943Z,11.13
2023-06-30T16:09:20.598Z,12.02
2023-06-30T16:11:52.177Z,10.60
2023-06-30T16:14:23.777Z,12.15
2023-06-30T16:16:55.394Z,12.48
2023-06-30T16:19:27.034Z,11.40
2023-06-30T16:21:58.581Z,12.98
2023-06-30T16:24:31.305Z,12.88
2023-06-30T16:27:03.059Z,13.45
2023-06-30T16:29:35.869Z,13.30
2023-06-30T16:32:08.737Z,13.57
2023-06-30T16:34:40.636Z,12.77
2023-06-30T16:37:12.458Z,12.13
2023-06-30T16:39:44.076Z,12.95
2023-06-30T16:42:15.692Z,10.52
2023-06-30T16:44:47.298Z,11.23
2023-06-30T16:47:19.007Z,10.65
2023-06-30T16:49:50.597Z,9.95
2023-06-30T16:52:24.312Z,10.98
2023-06-30T16:54:55.976Z,9.93
2023-06-30T16:57:27.640Z,12.27
2023-06-30T16:59:59.417Z,12.73
2023-06-30T17:02:31.367Z,10.02
2023-06-30T17:05:03.887Z,10.25
2023-06-30T17:07:35.691Z,12.88
2023-06-30T17:10:07.843Z,9.48
2023-06-30T17:12:40.068Z,8.20
2023-06-30T17:15:11.857Z,7.65
2023-06-30T17:17:43.530Z,9.48
2023-06-30T17:20:15.622Z,10.68
2023-06-30T17:22:47.337Z,9.95
2023-06-30T17:25:18.969Z,9.48
2023-06-30T17:27:50.975Z,8.80
2023-06-30T17:30:22.624Z,9.77
2023-06-30T17:32:54.517Z,9.13
2023-06-30T17:35:26.194Z,9.65
2023-06-30T17:37:57.804Z,8.60
2023-06-30T17:40:29.526Z,8.95
2023-06-30T17:43:01.460Z,7.60
2023-06-30T17:45:33.160Z,8.13
2023-06-30T17:48:05.276Z,8.85
2023-06-30T17:50:37.009Z,8.93
2023-06-30T17:53:10.086Z,7.88
2023-06-30T17:55:51.137Z,5.60
2023-06-30T18:00:54.320Z,7.72
2023-06-30T18:03:25.973Z,5.70
2023-06-30T18:06:00.310Z,7.05
2023-06-30T18:08:31.924Z,5.53
2023-06-30T18:11:09.631Z,8.15
2023-06-30T18:13:41.696Z,8.55
2023-06-30T18:16:14.215Z,9.65
2023-06-30T18:18:45.980Z,6.60
2023-06-30T18:21:17.930Z,7.00
2023-06-30T18:23:49.532Z,7.55
2023-06-30T18:26:21.174Z,7.28
2023-06-30T18:28:52.825Z,4.90
2023-06-30T18:31:24.369Z,8.55
2023-06-30T18:33:56.046Z,10.55
2023-06-30T18:36:27.615Z,6.80
2023-06-30T18:39:01.495Z,4.82
2023-06-30T18:41:33.852Z,6.70
2023-06-30T18:44:06.057Z,6.13
2023-06-30T18:46:37.824Z,4.40
2023-06-30T18:49:12.107Z,6.35
2023-06-30T18:51:47.527Z,6.15
2023-06-30T18:54:19.948Z,7.03
2023-06-30T18:56:51.784Z,5.43
2023-06-30T18:59:23.381Z,5.55
2023-06-30T19:01:55.098Z,4.90
2023-06-30T19:04:26.877Z,5.75
2023-06-30T19:06:58.538Z,5.35
2023-06-30T19:09:30.329Z,6.15
2023-06-30T19:12:02.079Z,7.55
2023-06-30T19:14:33.657Z,6.35
2023-06-30T19:17:05.380Z,7.78
2023-06-30T19:19:36.948Z,9.95
2023-06-30T19:22:08.529Z,9.07
2023-06-30T19:24:40.084Z,9.07
2023-06-30T19:27:15.495Z,8.82
2023-06-30T19:29:48.495Z,9.13
2023-06-30T19:32:20.292Z,8.15
2023-06-30T19:34:52.204Z,10.43
2023-06-30T19:37:25.964Z,7.38
2023-06-30T19:39:57.716Z,7.50
2023-06-30T19:42:31.424Z,8.10
2023-06-30T19:45:06.176Z,7.47
2023-06-30T19:47:37.878Z,8.63
2023-06-30T19:50:10.073Z,9.68
2023-06-30T19:52:43.223Z,5.85
2023-06-30T19:55:14.809Z,9.90
2023-06-30T19:57:47.437Z,6.75
2023-06-30T20:00:19.337Z,7.43
2023-06-30T20:02:51.205Z,8.23
2023-06-30T20:05:22.961Z,8.30
2023-06-30T20:07:54.768Z,7.65
2023-06-30T20:10:26.403Z,7.40
2023-06-30T20:13:00.080Z,6.55
2023-06-30T20:15:32.411Z,4.32
2023-06-30T20:18:04.208Z,3.25
2023-06-30T20:20:38.901Z,4.72
2023-06-30T20:23:10.473Z,5.50
2023-06-30T20:25:42.054Z,5.47
2023-06-30T20:28:13.688Z,3.17
2023-06-30T20:30:45.624Z,2.85
2023-06-30T20:33:17.585Z,4.47
2023-06-30T20:35:49.175Z,6.18
2023-06-30T20:38:20.922Z,4.10
2023-06-30T20:40:52.806Z,3.83
2023-06-30T20:43:24.422Z,4.47
2023-06-30T20:45:56.024Z,3.15
2023-06-30T20:48:27.600Z,3.65
2023-06-30T20:50:59.197Z,4.43
2023-06-30T20:53:30.770Z,3.80
2023-06-30T20:56:02.351Z,3.28
2023-06-30T20:58:33.946Z,3.38
2023-06-30T21:01:05.525Z,4.03
2023-06-30T21:03:38.371Z,2.58
2023-06-30T21:06:13.028Z,4.40
2023-06-30T21:08:47.452Z,4.05
2023-06-30T21:11:19.024Z,4.03
2023-06-30T21:13:50.617Z,4.85
2023-06-30T21:16:22.302Z,3.55
2023-06-30T21:18:54.155Z,4.95
2023-06-30T21:21:25.752Z,4.40
2023-06-30T21:23:57.358Z,4.22
2023-06-30T21:26:29.014Z,3.88
2023-06-30T21:29:00.638Z,4.32
2023-06-30T21:31:32.369Z,3.88
2023-06-30T21:34:04.038Z,3.47
2023-06-30T21:36:39.868Z,4.35
2023-06-30T21:39:11.646Z,4.15
2023-06-30T21:41:43.204Z,4.15
2023-06-30T21:44:18.271Z,4.38
2023-06-30T21:46:49.843Z,4.72
2023-06-30T21:49:22.602Z,5.68
2023-06-30T21:51:54.219Z,4.15
2023-06-30T21:54:36.364Z,4.40
2023-06-30T21:57:17.426Z,4.68
2023-06-30T21:59:49.009Z,4.72
2023-06-30T22:02:20.722Z,4.40
2023-06-30T22:04:52.353Z,5.57
2023-06-30T22:07:23.962Z,6.82
2023-06-30T22:09:55.544Z,4.90
2023-06-30T22:12:27.163Z,4.75
2023-06-30T22:15:01.882Z,4.90
2023-06-30T22:17:38.664Z,3.85
2023-06-30T22:20:10.854Z,3.85
2023-06-30T22:22:42.402Z,3.75
2023-06-30T22:25:15.295Z,3.13
2023-06-30T22:27:48.457Z,1.77
2023-06-30T22:30:22.970Z,3.08
2023-06-30T22:32:54.658Z,3.03
2023-06-30T22:35:29.363Z,2.30
2023-06-30T22:38:00.915Z,1.98
2023-06-30T22:40:32.575Z,2.67
2023-06-30T22:43:04.186Z,2.78
2023-06-30T22:45:42.996Z,2.20
2023-06-30T22:48:17.614Z,2.10
2023-06-30T22:50:50.951Z,0.85
2023-06-30T22:53:22.531Z,2.47
2023-06-30T22:55:54.109Z,2.70
2023-06-30T22:58:28.031Z,2.63
2023-06-30T23:00:59.705Z,1.45
2023-06-30T23:03:31.469Z,2.10
2023-06-30T23:06:03.873Z,1.33
2023-06-30T23:08:35.488Z,2.42
2023-06-30T23:11:07.091Z,1.70
2023-06-30T23:13:38.647Z,2.85
2023-06-30T23:16:10.307Z,2.90
2023-06-30T23:18:42.007Z,4.05
2023-06-30T23:21:16.055Z,3.25
2023-06-30T23:23:47.822Z,1.33
2023-06-30T23:26:23.804Z,2.70
2023-06-30T23:28:56.103Z,3.45
2023-06-30T23:31:34.065Z,3.65
2023-06-30T23:34:08.604Z,2.97
2023-06-30T23:36:40.216Z,3.53
2023-06-30T23:39:14.563Z,2.65
2023-06-30T23:41:46.186Z,3.15
2023-06-30T23:44:20.844Z,2.80
2023-06-30T23:46:53.997Z,2.35
2023-06-30T23:49:25.645Z,3.88
2023-06-30T23:51:59.395Z,3.58
2023-06-30T23:54:30.990Z,2.95
2023-06-30T23:57:02.710Z,3.53
2023-06-30T23:59:36.566Z,4.05
